Time;durP1;ratioP1;P1;durP2;ratioP2;P2;SDS_P1;SDS_P2;PMS_P1;PMS_P2;Temp;Humidity;BMP_temperature;BMP_pressure;BME280_temperature;BME280_humidity;BME280_pressure;Samples;Min_cycle;Max_cycle;Signal;HPM_P1;HPM_P2
2021/06/20 00:00:49;;;;;;;54.92;43.78;;;;;;;21.16;98.93;100302.38;5045311;28;20056;-83
2021/06/20 00:03:15;;;;;;;54.67;41.95;;;;;;;21.01;100.00;100274.84;5040268;28;20057;-83
2021/06/20 00:06:00;;;;;;;57.55;43.15;;;;;;;20.92;100.00;100260.78;5043992;28;20482;-83
2021/06/20 00:08:26;;;;;;;53.30;40.00;;;;;;;20.83;100.00;100248.59;5046555;28;20330;-84
2021/06/20 00:10:52;;;;;;;54.15;41.00;;;;;;;20.77;100.00;100252.31;5063778;28;20033;-84
2021/06/20 00:13:19;;;;;;;51.90;40.55;;;;;;;20.73;100.00;100247.34;5060420;28;20041;-84
2021/06/20 00:15:45;;;;;;;49.08;39.33;;;;;;;20.71;100.00;100229.56;5034296;28;20124;-84
2021/06/20 00:18:11;;;;;;;47.85;38.45;;;;;;;20.76;100.00;100251.47;5049717;28;20108;-83
2021/06/20 00:20:39;;;;;;;45.92;36.88;;;;;;;20.81;100.00;100253.47;5042414;28;20470;-83
2021/06/20 00:23:05;;;;;;;46.72;35.70;;;;;;;20.79;100.00;100275.53;5035843;28;20517;-83
2021/06/20 00:25:31;;;;;;;46.38;36.25;;;;;;;20.83;100.00;100273.13;5048907;28;20099;-84
2021/06/20 00:27:57;;;;;;;43.08;36.33;;;;;;;20.78;100.00;100260.25;5047503;28;20044;-84
2021/06/20 00:30:25;;;;;;;43.83;34.13;;;;;;;20.79;100.00;100264.63;5052911;28;20056;-84
2021/06/20 00:32:52;;;;;;;39.53;32.65;;;;;;;20.75;100.00;100257.19;5031984;28;20041;-84
2021/06/20 00:35:18;;;;;;;35.95;28.92;;;;;;;20.72;100.00;100258.50;5042010;28;20061;-84
2021/06/20 00:37:46;;;;;;;39.78;30.55;;;;;;;20.73;100.00;100246.50;5061769;28;20040;-85
2021/06/20 00:40:12;;;;;;;31.77;27.48;;;;;;;20.74;100.00;100237.25;5047731;28;20033;-83
2021/06/20 00:42:38;;;;;;;34.33;26.73;;;;;;;20.73;100.00;100221.97;5064354;28;20037;-83
2021/06/20 00:45:05;;;;;;;28.33;23.67;;;;;;;20.71;100.00;100205.03;5062874;28;20052;-84
2021/06/20 00:47:31;;;;;;;24.15;21.55;;;;;;;20.77;100.00;100197.78;5047890;28;20041;-84
2021/06/20 00:49:56;;;;;;;24.80;22.17;;;;;;;20.74;99.95;100196.34;5064471;28;20060;-83
2021/06/20 00:52:24;;;;;;;27.60;22.35;;;;;;;20.76;99.93;100191.50;5047020;28;20120;-85
2021/06/20 00:54:57;;;;;;;22.95;19.88;;;;;;;20.69;100.00;100169.03;5049274;28;20440;-83
2021/06/20 00:57:23;;;;;;;23.70;20.90;;;;;;;20.69;100.00;100175.31;5047375;28;20044;-84
2021/06/20 00:59:50;;;;;;;25.02;22.42;;;;;;;20.72;100.00;100163.09;5049327;28;20370;-83
2021/06/20 01:02:19;;;;;;;24.77;20.92;;;;;;;20.70;100.00;100143.41;5044048;28;20069;-85
2021/06/20 01:04:51;;;;;;;23.42;20.92;;;;;;;20.65;100.00;100130.50;5048171;28;20041;-84
2021/06/20 01:07:25;;;;;;;22.92;19.90;;;;;;;20.64;100.00;100119.88;5035919;28;20067;-84
2021/06/20 01:09:59;;;;;;;21.05;17.13;;;;;;;20.60;100.00;100105.06;5058671;28;20082;-83
2021/06/20 01:12:24;;;;;;;19.10;17.10;;;;;;;20.57;100.00;100116.47;5044844;28;20069;-86
2021/06/20 01:14:51;;;;;;;19.40;16.17;;;;;;;20.55;100.00;100105.00;5041097;28;20067;-85
2021/06/20 01:17:19;;;;;;;19.95;15.82;;;;;;;20.56;100.00;100093.03;5054332;28;20106;-86
2021/06/20 01:19:45;;;;;;;15.90;14.13;;;;;;;20.51;100.00;100086.38;5047222;28;20039;-84
2021/06/20 01:22:25;;;;;;;15.20;13.35;;;;;;;20.51;100.00;100088.25;5042097;28;20125;-84
2021/06/20 01:24:56;;;;;;;16.77;12.75;;;;;;;20.49;100.00;100087.72;5045549;28;20654;-82
2021/06/20 01:27:40;;;;;;;15.30;12.70;;;;;;;20.47;100.00;100100.75;5042846;28;20163;-84
2021/06/20 01:30:09;;;;;;;13.73;12.32;;;;;;;20.53;99.77;100099.78;5037001;28;20072;-83
2021/06/20 01:32:35;;;;;;;18.33;12.95;;;;;;;20.53;100.00;100098.97;5040666;28;20064;-84
2021/06/20 01:35:00;;;;;;;13.05;11.65;;;;;;;20.57;100.00;100086.47;5043381;28;20053;-83
2021/06/20 01:37:27;;;;;;;14.95;13.02;;;;;;;20.57;99.78;100075.59;5043750;28;20482;-87
2021/06/20 01:39:52;;;;;;;14.80;13.30;;;;;;;20.54;99.69;100073.34;5027182;28;20038;-84
2021/06/20 01:42:19;;;;;;;15.63;14.02;;;;;;;20.54;99.84;100065.19;5027507;28;20128;-83
2021/06/20 01:44:48;;;;;;;16.55;14.77;;;;;;;20.61;100.00;100052.22;5046371;28;20040;-83
2021/06/20 01:47:15;;;;;;;16.23;14.50;;;;;;;20.56;100.00;100063.84;5037746;28;20048;-84
2021/06/20 01:49:41;;;;;;;15.82;14.23;;;;;;;20.51;100.00;100064.59;5031401;28;20057;-85
2021/06/20 01:52:07;;;;;;;17.10;14.95;;;;;;;20.51;100.00;100074.63;5052397;28;20030;-84
2021/06/20 01:54:52;;;;;;;17.23;15.13;;;;;;;20.53;100.00;100071.72;5043316;28;20037;-84
2021/06/20 01:57:22;;;;;;;17.85;15.45;;;;;;;20.49;100.00;100072.19;5046492;28;20068;-84
2021/06/20 01:59:48;;;;;;;17.60;15.15;;;;;;;20.50;100.00;100071.09;5073299;28;20079;-83
2021/06/20 02:02:15;;;;;;;18.55;16.55;;;;;;;20.51;99.58;100077.38;5044131;28;20028;-84
2021/06/20 02:04:41;;;;;;;17.60;15.70;;;;;;;20.46;100.00;100067.22;5046406;28;20059;-83
2021/06/20 02:07:10;;;;;;;17.85;15.32;;;;;;;20.50;100.00;100073.00;5048072;28;20041;-84
2021/06/20 02:09:37;;;;;;;17.83;15.95;;;;;;;20.40;100.00;100075.53;5048477;28;20043;-81
2021/06/20 02:12:06;;;;;;;16.70;14.93;;;;;;;20.37;100.00;100076.88;5046715;28;20029;-85
2021/06/20 02:14:32;;;;;;;20.48;16.35;;;;;;;20.41;100.00;100066.31;5058554;28;20086;-83
2021/06/20 02:16:58;;;;;;;18.52;15.70;;;;;;;20.38;100.00;100070.34;5041796;28;20559;-83
2021/06/20 02:19:30;;;;;;;21.08;17.35;;;;;;;20.43;100.00;100058.72;5028520;28;20053;-84
2021/06/20 02:21:56;;;;;;;19.83;16.13;;;;;;;20.36;100.00;100055.31;5047497;28;20026;-83
2021/06/20 02:24:22;;;;;;;18.83;16.23;;;;;;;20.37;100.00;100059.69;5039310;28;20493;-83
2021/06/20 02:26:50;;;;;;;20.67;15.57;;;;;;;20.42;100.00;100046.16;5063543;28;20040;-84
2021/06/20 02:29:17;;;;;;;20.75;15.60;;;;;;;20.39;100.00;100031.13;5053487;28;20048;-83
2021/06/20 02:31:44;;;;;;;18.17;15.65;;;;;;;20.38;100.00;100031.38;5054586;28;20065;-84
2021/06/20 02:34:11;;;;;;;17.33;14.82;;;;;;;20.43;100.00;100028.75;5041423;28;20041;-84
2021/06/20 02:36:37;;;;;;;19.30;13.70;;;;;;;20.39;100.00;100027.56;5040997;28;20033;-83
2021/06/20 02:39:07;;;;;;;16.83;13.05;;;;;;;20.41;100.00;100036.34;5050016;28;20073;-82
2021/06/20 02:41:33;;;;;;;14.43;11.80;;;;;;;20.37;100.00;100046.06;5056749;28;20056;-84
2021/06/20 02:43:59;;;;;;;16.58;12.32;;;;;;;20.44;100.00;100047.56;5043352;28;20041;-83
2021/06/20 02:46:35;;;;;;;14.98;12.75;;;;;;;20.46;100.00;100039.97;5043871;28;20053;-82
2021/06/20 02:49:09;;;;;;;15.20;10.23;;;;;;;20.42;100.00;100040.69;5025147;28;20049;-83
2021/06/20 02:51:37;;;;;;;12.30;10.23;;;;;;;20.47;100.00;100032.63;5059421;28;20519;-83
2021/06/20 02:54:04;;;;;;;16.00;10.13;;;;;;;20.45;100.00;100012.97;5044770;28;20401;-84
2021/06/20 02:56:29;;;;;;;12.02;10.07;;;;;;;20.45;100.00;100019.22;5050658;28;20045;-83
2021/06/20 02:58:55;;;;;;;12.35;9.75;;;;;;;20.49;99.45;100016.84;5033884;28;20048;-85
2021/06/20 03:01:22;;;;;;;10.90;9.80;;;;;;;20.48;100.00;100016.03;5036609;28;20046;-82
2021/06/20 03:03:53;;;;;;;14.23;10.13;;;;;;;20.47;100.00;100024.44;5046356;28;20087;-83
2021/06/20 03:06:19;;;;;;;11.30;9.60;;;;;;;20.44;100.00;100031.22;5037969;28;20097;-85
2021/06/20 03:08:44;;;;;;;11.68;9.57;;;;;;;20.46;100.00;100033.69;5045199;28;20041;-83
2021/06/20 03:11:29;;;;;;;12.77;9.38;;;;;;;20.45;100.00;100048.38;5041966;28;20098;-83
2021/06/20 03:13:55;;;;;;;12.00;8.75;;;;;;;20.39;100.00;100077.44;5035721;28;20044;-83
2021/06/20 03:16:32;;;;;;;11.63;8.48;;;;;;;20.39;100.00;100080.16;5036045;28;20040;-83
2021/06/20 03:19:02;;;;;;;11.88;8.13;;;;;;;20.41;100.00;100085.38;5042828;28;20065;-84
2021/06/20 03:21:27;;;;;;;9.82;8.15;;;;;;;20.40;100.00;100094.59;5062093;28;20045;-83
2021/06/20 03:23:53;;;;;;;14.57;9.93;;;;;;;20.43;100.00;100088.69;5046043;28;20102;-83
2021/06/20 03:26:18;;;;;;;15.13;9.10;;;;;;;20.41;100.00;100077.22;5045638;28;20064;-83
2021/06/20 03:28:44;;;;;;;13.13;9.55;;;;;;;20.39;100.00;100082.06;5052580;28;20058;-83
2021/06/20 03:31:09;;;;;;;14.48;9.43;;;;;;;20.37;100.00;100084.22;5038691;28;20061;-82
2021/06/20 03:33:35;;;;;;;14.32;8.65;;;;;;;20.36;100.00;100091.56;5053020;28;20049;-83
2021/06/20 03:36:03;;;;;;;14.90;9.48;;;;;;;20.37;100.00;100095.94;5053492;28;20065;-83
2021/06/20 03:38:29;;;;;;;14.13;8.77;;;;;;;20.31;100.00;100094.19;5046895;28;20053;-83
2021/06/20 03:41:00;;;;;;;11.73;8.13;;;;;;;20.27;100.00;100099.31;5060168;28;20116;-84
2021/06/20 03:43:27;;;;;;;13.93;8.85;;;;;;;20.30;100.00;100095.28;5041065;28;20436;-83
2021/06/20 03:45:59;;;;;;;12.35;8.68;;;;;;;20.32;100.00;100097.75;5046987;28;20044;-84
2021/06/20 03:48:31;;;;;;;14.45;8.65;;;;;;;20.34;100.00;100096.44;5038007;28;20179;-82
2021/06/20 03:50:57;;;;;;;11.45;8.23;;;;;;;20.34;100.00;100087.41;5045514;28;20037;-82
2021/06/20 03:53:25;;;;;;;14.93;8.80;;;;;;;20.35;100.00;100081.75;5055536;28;20045;-83
2021/06/20 03:55:56;;;;;;;10.90;7.82;;;;;;;20.38;100.00;100081.25;5062231;28;20051;-83
2021/06/20 03:58:23;;;;;;;11.73;8.00;;;;;;;20.36;100.00;100074.38;5038782;28;20045;-84
2021/06/20 04:00:49;;;;;;;13.05;7.68;;;;;;;20.36;100.00;100088.84;5049792;28;20044;-84
2021/06/20 04:03:14;;;;;;;12.45;7.40;;;;;;;20.41;100.00;100091.66;5053958;28;20037;-84
2021/06/20 04:05:40;;;;;;;12.68;8.07;;;;;;;20.41;100.00;100094.38;5048886;28;20049;-84
2021/06/20 04:08:11;;;;;;;13.52;8.23;;;;;;;20.40;100.00;100090.00;5037954;28;20037;-82
2021/06/20 04:10:37;;;;;;;11.68;7.95;;;;;;;20.39;100.00;100092.97;5042446;28;20533;-82
2021/06/20 04:13:03;;;;;;;11.68;7.90;;;;;;;20.43;100.00;100094.97;5057521;28;20041;-84
2021/06/20 04:15:31;;;;;;;12.45;7.32;;;;;;;20.43;100.00;100105.03;5045626;28;20481;-82
2021/06/20 04:17:57;;;;;;;12.02;8.15;;;;;;;20.48;100.00;100116.00;5030395;28;20072;-82
2021/06/20 04:20:32;;;;;;;14.73;8.18;;;;;;;20.47;100.00;100114.38;5042428;28;20083;-84
2021/06/20 04:22:58;;;;;;;15.75;8.40;;;;;;;20.47;100.00;100119.81;5056143;28;20048;-84
2021/06/20 04:25:23;;;;;;;15.60;9.35;;;;;;;20.47;100.00;100111.66;5029538;28;20053;-84
2021/06/20 04:27:49;;;;;;;14.75;10.40;;;;;;;20.49;100.00;100137.59;5045544;28;20041;-84
2021/06/20 04:30:24;;;;;;;16.63;9.85;;;;;;;20.51;100.00;100121.81;5038727;28;20044;-82
2021/06/20 04:32:58;;;;;;;19.88;10.95;;;;;;;20.50;100.00;100136.50;5052113;28;20072;-83
2021/06/20 04:35:28;;;;;;;17.85;11.23;;;;;;;20.56;100.00;100150.25;5037537;28;20041;-84
2021/06/20 04:38:01;;;;;;;20.00;12.07;;;;;;;20.53;100.00;100148.03;5043079;28;20029;-82
2021/06/20 04:40:28;;;;;;;16.67;11.85;;;;;;;20.50;100.00;100152.84;5039864;28;20405;-81
2021/06/20 04:43:04;;;;;;;16.27;12.55;;;;;;;20.51;100.00;100138.16;5055085;28;20033;-84
2021/06/20 04:45:31;;;;;;;17.67;12.55;;;;;;;20.50;100.00;100141.13;5053320;28;20053;-83
2021/06/20 04:47:57;;;;;;;19.05;13.10;;;;;;;20.47;100.00;100144.34;5058541;28;20032;-82
2021/06/20 04:50:22;;;;;;;19.52;13.75;;;;;;;20.50;100.00;100144.69;5038027;28;20064;-84
2021/06/20 04:52:50;;;;;;;21.25;14.88;;;;;;;20.50;100.00;100141.13;5041644;28;20067;-83
2021/06/20 04:55:22;;;;;;;22.70;15.50;;;;;;;20.55;100.00;100145.88;5059285;28;20098;-83
2021/06/20 04:57:54;;;;;;;21.70;15.73;;;;;;;20.53;100.00;100153.47;5047506;28;20065;-83
2021/06/20 05:00:19;;;;;;;22.02;15.98;;;;;;;20.50;99.66;100158.31;5039819;28;20061;-84
2021/06/20 05:02:45;;;;;;;26.35;17.25;;;;;;;20.51;98.97;100179.06;5054858;28;20048;-84
2021/06/20 05:05:11;;;;;;;23.00;16.45;;;;;;;20.50;99.35;100182.00;5049673;28;20046;-84
2021/06/20 05:07:37;;;;;;;25.58;17.27;;;;;;;20.49;98.87;100167.56;5060019;28;20091;-83
2021/06/20 05:10:03;;;;;;;25.30;17.70;;;;;;;20.46;98.94;100167.22;5055162;28;20041;-84
2021/06/20 05:12:28;;;;;;;26.50;19.17;;;;;;;20.44;98.05;100186.53;5038502;28;20051;-84
2021/06/20 05:14:55;;;;;;;27.40;19.38;;;;;;;20.37;98.27;100176.84;5047938;28;20067;-85
2021/06/20 05:17:22;;;;;;;30.75;20.85;;;;;;;20.39;97.17;100186.44;5038798;28;20036;-83
2021/06/20 05:19:54;;;;;;;29.55;20.25;;;;;;;20.36;97.60;100192.38;5041726;28;20436;-84
2021/06/20 05:22:20;;;;;;;28.88;20.25;;;;;;;20.38;97.26;100187.50;5041347;28;20048;-82
2021/06/20 05:24:47;;;;;;;31.83;20.00;;;;;;;20.41;97.41;100217.00;5029210;28;20136;-83
2021/06/20 05:27:20;;;;;;;29.95;20.55;;;;;;;20.38;97.25;100201.13;5027580;28;20389;-83
2021/06/20 05:29:46;;;;;;;26.92;19.92;;;;;;;20.38;96.76;100197.59;5050509;28;20048;-84
2021/06/20 05:32:11;;;;;;;29.60;19.40;;;;;;;20.38;96.61;100198.41;5034118;28;20030;-82
2021/06/20 05:34:37;;;;;;;26.25;19.25;;;;;;;20.36;97.65;100205.16;5043606;28;20048;-83
2021/06/20 05:37:02;;;;;;;26.98;18.80;;;;;;;20.34;96.51;100210.03;5044796;28;20034;-82
2021/06/20 05:39:28;;;;;;;26.55;20.95;;;;;;;20.35;96.11;100207.06;5045322;28;20499;-84
2021/06/20 05:41:53;;;;;;;26.92;18.95;;;;;;;20.33;96.33;100200.22;5045794;28;20110;-81
2021/06/20 05:44:19;;;;;;;26.85;18.75;;;;;;;20.38;96.44;100201.13;5061034;28;20037;-87
2021/06/20 05:46:44;;;;;;;26.48;19.75;;;;;;;20.41;95.82;100200.66;5045448;28;20112;-84
2021/06/20 05:49:09;;;;;;;25.58;18.85;;;;;;;20.38;95.55;100203.88;5047803;28;20761;-85
2021/06/20 05:51:35;;;;;;;26.08;17.42;;;;;;;20.33;95.43;100200.22;5047734;28;20041;-82
2021/06/20 05:54:00;;;;;;;26.27;17.65;;;;;;;20.34;95.31;100218.19;5048137;28;20041;-82
2021/06/20 05:56:26;;;;;;;26.67;18.85;;;;;;;20.39;94.61;100213.69;5062663;28;20059;-83
2021/06/20 05:58:51;;;;;;;25.60;18.63;;;;;;;20.43;94.56;100228.50;5048589;28;20044;-84
2021/06/20 06:01:16;;;;;;;26.20;17.77;;;;;;;20.43;94.20;100233.94;5047402;28;20376;-84
2021/06/20 06:03:42;;;;;;;27.25;18.85;;;;;;;20.43;94.21;100235.84;5046031;28;20033;-83
2021/06/20 06:06:07;;;;;;;23.98;19.50;;;;;;;20.45;94.54;100239.13;5044229;28;20580;-82
2021/06/20 06:08:32;;;;;;;27.88;19.40;;;;;;;20.44;94.18;100242.94;5052125;28;20037;-82
2021/06/20 06:10:58;;;;;;;29.58;20.20;;;;;;;20.41;94.22;100249.69;5041476;28;20099;-81
2021/06/20 06:13:23;;;;;;;25.27;18.77;;;;;;;20.41;94.50;100254.31;5048622;28;20056;-83
2021/06/20 06:15:49;;;;;;;30.48;20.88;;;;;;;20.35;94.86;100258.03;5039478;28;20037;-83
2021/06/20 06:18:14;;;;;;;32.00;21.17;;;;;;;20.32;94.40;100245.72;5058047;28;20398;-84
2021/06/20 06:20:40;;;;;;;30.20;21.45;;;;;;;20.27;93.71;100261.94;5044435;28;20041;-85
2021/06/20 06:23:05;;;;;;;32.35;20.63;;;;;;;20.21;93.95;100260.19;5041492;28;20481;-82
2021/06/20 06:25:31;;;;;;;33.92;21.23;;;;;;;20.25;93.42;100245.84;5055959;28;20040;-84
2021/06/20 06:27:56;;;;;;;30.63;21.65;;;;;;;20.25;92.24;100251.31;5046939;28;20043;-83
2021/06/20 06:30:22;;;;;;;30.25;21.30;;;;;;;20.28;92.36;100255.41;5044757;28;20047;-84
2021/06/20 06:32:48;;;;;;;28.75;19.10;;;;;;;20.25;92.20;100255.91;5045415;28;20037;-83
2021/06/20 06:35:15;;;;;;;28.35;20.73;;;;;;;20.35;92.26;100255.28;5036719;28;20063;-83
2021/06/20 06:37:41;;;;;;;24.65;18.17;;;;;;;20.37;91.14;100259.44;5038386;28;20041;-85
2021/06/20 06:40:09;;;;;;;28.13;20.25;;;;;;;20.45;90.29;100266.38;5039074;28;20064;-83
2021/06/20 06:42:35;;;;;;;26.88;18.65;;;;;;;20.45;89.69;100283.56;5056779;28;20038;-84
2021/06/20 06:45:00;;;;;;;28.85;18.48;;;;;;;20.49;89.47;100279.28;5046534;28;20046;-83
2021/06/20 06:47:27;;;;;;;25.80;18.65;;;;;;;20.56;89.50;100281.91;5040067;28;20036;-83
2021/06/20 06:49:53;;;;;;;22.73;17.08;;;;;;;20.53;89.25;100274.22;5053473;28;20040;-83
2021/06/20 06:52:18;;;;;;;26.00;18.00;;;;;;;20.58;89.25;100277.03;5058886;28;20025;-83
2021/06/20 06:54:51;;;;;;;24.80;17.20;;;;;;;20.65;88.11;100275.00;5037486;28;20392;-84
2021/06/20 06:57:20;;;;;;;22.10;16.27;;;;;;;20.65;87.37;100291.34;5040125;28;20482;-83
2021/06/20 06:59:46;;;;;;;22.10;16.38;;;;;;;20.63;86.99;100281.75;5038066;28;20065;-83
2021/06/20 07:02:12;;;;;;;21.88;13.98;;;;;;;20.50;86.53;100280.94;5057310;28;20040;-83
2021/06/20 07:04:37;;;;;;;18.88;14.25;;;;;;;20.49;86.40;100287.47;5042994;28;20378;-84
2021/06/20 07:07:03;;;;;;;18.35;14.43;;;;;;;20.55;86.28;100293.06;5059653;28;20374;-83
2021/06/20 07:09:29;;;;;;;18.25;13.90;;;;;;;20.56;86.00;100283.81;5036494;28;20444;-86
2021/06/20 07:11:55;;;;;;;16.85;13.65;;;;;;;20.57;86.06;100290.91;5041871;28;20123;-84
2021/06/20 07:14:20;;;;;;;17.17;13.30;;;;;;;20.59;85.07;100277.88;5037886;28;20809;-83
2021/06/20 07:16:45;;;;;;;17.58;12.95;;;;;;;20.61;85.20;100286.63;5029863;28;20037;-84
2021/06/20 07:19:11;;;;;;;19.38;13.00;;;;;;;20.59;84.84;100283.31;5026297;28;20130;-84
2021/06/20 07:21:36;;;;;;;21.40;14.40;;;;;;;20.57;85.07;100286.31;5047304;28;20041;-84
2021/06/20 07:24:03;;;;;;;19.75;14.13;;;;;;;20.63;85.17;100292.66;5056654;28;20044;-82
2021/06/20 07:26:28;;;;;;;20.00;13.60;;;;;;;20.70;84.80;100282.44;5040273;28;20103;-82
2021/06/20 07:28:54;;;;;;;21.55;15.15;;;;;;;20.69;85.46;100284.34;5044925;28;20549;-82
2021/06/20 07:31:19;;;;;;;20.52;16.48;;;;;;;20.78;84.68;100292.97;5040013;28;20409;-82
2021/06/20 07:33:45;;;;;;;21.58;14.82;;;;;;;20.81;84.73;100292.47;5035449;28;20385;-82
2021/06/20 07:36:11;;;;;;;18.13;14.73;;;;;;;20.94;84.83;100281.28;5037028;28;20103;-85
2021/06/20 07:38:37;;;;;;;20.05;15.35;;;;;;;20.98;83.25;100278.88;5041498;28;20041;-83
2021/06/20 07:41:03;;;;;;;18.35;14.00;;;;;;;20.87;83.05;100290.69;5066179;28;20044;-82
2021/06/20 07:43:28;;;;;;;19.00;13.25;;;;;;;20.82;83.28;100291.41;5043026;28;20045;-85
2021/06/20 07:45:55;;;;;;;20.15;14.43;;;;;;;20.85;82.85;100285.44;5054993;28;20556;-83
2021/06/20 07:48:24;;;;;;;19.60;13.93;;;;;;;20.81;82.25;100292.47;5046718;28;20120;-83
2021/06/20 07:50:49;;;;;;;19.92;14.25;;;;;;;20.85;83.32;100304.53;5049283;28;20076;-83
2021/06/20 07:53:15;;;;;;;19.27;13.93;;;;;;;20.88;84.03;100312.22;5042241;28;20082;-84
2021/06/20 07:55:40;;;;;;;19.67;14.52;;;;;;;20.91;82.69;100309.00;5040004;28;20045;-84
2021/06/20 07:58:05;;;;;;;17.30;13.60;;;;;;;20.91;82.98;100309.00;5037698;28;20037;-84
2021/06/20 08:00:31;;;;;;;16.75;12.27;;;;;;;20.93;82.07;100315.06;5055190;28;20045;-83
2021/06/20 08:02:56;;;;;;;14.95;11.52;;;;;;;20.98;80.52;100314.34;5053997;28;20563;-84
2021/06/20 08:05:22;;;;;;;15.43;11.38;;;;;;;21.10;80.50;100320.56;5042272;28;20757;-85
2021/06/20 08:07:47;;;;;;;15.82;11.57;;;;;;;21.21;80.58;100324.31;5051159;28;20041;-84
2021/06/20 08:10:13;;;;;;;14.35;11.73;;;;;;;21.31;78.56;100329.94;5039763;28;20401;-86
2021/06/20 08:12:38;;;;;;;14.75;11.70;;;;;;;21.29;77.79;100310.25;5045755;28;20079;-84
2021/06/20 08:15:05;;;;;;;14.60;12.20;;;;;;;21.26;77.06;100304.44;5050384;28;20041;-84
2021/06/20 08:17:31;;;;;;;13.70;10.25;;;;;;;21.25;77.76;100321.91;5052236;28;20044;-83
2021/06/20 08:19:57;;;;;;;15.45;11.10;;;;;;;21.26;77.35;100316.22;5045081;28;20101;-82
2021/06/20 08:22:22;;;;;;;12.45;10.52;;;;;;;21.37;77.53;100334.44;5043010;28;20029;-83
2021/06/20 08:24:49;;;;;;;12.18;9.15;;;;;;;21.44;75.52;100336.19;5038679;28;20068;-84
2021/06/20 08:27:15;;;;;;;12.50;9.48;;;;;;;21.44;75.56;100341.66;5056813;28;20041;-83
2021/06/20 08:29:40;;;;;;;11.85;8.27;;;;;;;21.39;73.86;100353.28;5039772;28;20725;-85
2021/06/20 08:32:06;;;;;;;10.63;8.30;;;;;;;21.44;75.08;100333.47;5053703;28;20029;-84
2021/06/20 08:34:32;;;;;;;9.85;7.88;;;;;;;21.52;74.10;100335.75;5049638;28;20072;-86
2021/06/20 08:36:59;;;;;;;11.32;7.85;;;;;;;21.56;73.14;100335.03;5039226;28;20137;-84
2021/06/20 08:39:24;;;;;;;9.35;7.95;;;;;;;21.72;73.39;100333.38;5046369;28;20040;-83
2021/06/20 08:41:50;;;;;;;9.82;7.65;;;;;;;21.92;71.76;100323.81;5042039;28;20048;-85
2021/06/20 08:44:20;;;;;;;10.85;7.50;;;;;;;22.09;71.69;100344.56;5051312;28;20039;-84
2021/06/20 08:46:46;;;;;;;10.25;7.20;;;;;;;22.28;71.14;100356.06;5039216;28;20167;-83
2021/06/20 08:49:12;;;;;;;10.40;7.75;;;;;;;22.40;71.10;100355.13;5036577;28;20114;-83
2021/06/20 08:51:46;;;;;;;11.57;7.35;;;;;;;22.54;69.71;100356.41;5053821;28;20455;-85
2021/06/20 08:54:11;;;;;;;9.13;7.22;;;;;;;22.39;69.83;100362.53;5052654;28;20075;-82
2021/06/20 08:56:37;;;;;;;9.85;7.70;;;;;;;22.43;70.25;100351.91;5033247;28;20480;-83
2021/06/20 08:59:06;;;;;;;13.65;7.70;;;;;;;22.44;69.29;100353.53;5039204;28;20037;-81
2021/06/20 09:01:35;;;;;;;8.98;7.50;;;;;;;22.47;69.31;100355.75;5050093;28;20040;-83
2021/06/20 09:04:00;;;;;;;9.60;7.55;;;;;;;22.42;68.39;100340.16;5053784;28;20041;-83
2021/06/20 09:06:26;;;;;;;8.90;7.13;;;;;;;22.38;68.65;100346.34;5044324;28;20335;-83
2021/06/20 09:09:00;;;;;;;9.18;7.47;;;;;;;22.44;68.74;100357.13;5058978;28;20037;-82
2021/06/20 09:11:38;;;;;;;11.80;7.13;;;;;;;22.57;68.88;100353.19;5036669;28;20215;-83
2021/06/20 09:14:06;;;;;;;10.23;7.53;;;;;;;22.57;67.04;100353.19;5039343;28;20048;-84
2021/06/20 09:16:33;;;;;;;9.10;7.38;;;;;;;22.49;66.69;100343.50;5037982;28;20114;-85
2021/06/20 09:18:58;;;;;;;8.00;6.20;;;;;;;22.44;66.25;100354.41;5045790;28;20045;-83
2021/06/20 09:21:24;;;;;;;9.00;7.43;;;;;;;22.42;67.26;100380.31;5045744;28;20033;-84
2021/06/20 09:23:52;;;;;;;9.30;6.47;;;;;;;22.48;66.88;100343.78;5039900;28;20052;-84
2021/06/20 09:26:19;;;;;;;8.95;6.93;;;;;;;22.46;66.60;100340.47;5037269;28;20044;-83
2021/06/20 09:28:50;;;;;;;10.27;6.80;;;;;;;22.37;67.76;100361.13;5055184;28;20646;-83
2021/06/20 09:31:16;;;;;;;8.98;7.05;;;;;;;22.56;68.62;100369.81;5055019;28;20124;-83
2021/06/20 09:33:41;;;;;;;8.15;6.90;;;;;;;22.78;66.78;100370.66;5057597;28;20116;-84
2021/06/20 09:36:06;;;;;;;10.50;6.88;;;;;;;22.83;67.88;100372.63;5049954;28;20125;-84
2021/06/20 09:38:37;;;;;;;8.82;6.47;;;;;;;23.04;66.94;100370.97;5043366;28;20048;-85
2021/06/20 09:41:11;;;;;;;6.97;5.35;;;;;;;23.11;64.75;100374.34;5033881;28;20037;-83
2021/06/20 09:43:49;;;;;;;8.15;4.80;;;;;;;23.13;62.02;100373.03;5045092;28;20044;-83
2021/06/20 09:46:15;;;;;;;6.20;4.73;;;;;;;23.05;63.45;100373.47;5047147;28;20141;-85
2021/06/20 09:48:40;;;;;;;7.13;4.55;;;;;;;23.06;60.47;100382.50;5028651;28;20596;-83
2021/06/20 09:51:14;;;;;;;7.65;4.60;;;;;;;23.13;60.43;100370.28;5059971;28;20053;-83
2021/06/20 09:53:43;;;;;;;5.65;4.38;;;;;;;23.29;62.19;100395.88;5035901;28;20043;-83
2021/06/20 09:56:30;;;;;;;7.90;5.55;;;;;;;23.43;62.48;100404.50;5039763;28;20098;-82
2021/06/20 09:59:03;;;;;;;6.80;5.15;;;;;;;23.35;61.22;100397.59;5041317;28;20524;-84
2021/06/20 10:01:31;;;;;;;6.80;4.72;;;;;;;23.32;61.50;100405.50;5051704;28;20055;-81
2021/06/20 10:03:57;;;;;;;8.50;6.03;;;;;;;23.41;62.10;100399.28;5057495;28;20083;-83
2021/06/20 10:06:23;;;;;;;6.63;5.00;;;;;;;23.58;61.98;100418.34;5038338;28;20048;-84
2021/06/20 10:08:48;;;;;;;6.47;4.75;;;;;;;23.67;62.13;100401.44;5054969;28;20061;-83
2021/06/20 10:11:16;;;;;;;6.65;5.00;;;;;;;23.43;61.80;100416.28;5052205;28;20119;-84
2021/06/20 10:13:42;;;;;;;6.00;5.00;;;;;;;23.19;62.05;100413.03;5047763;28;20448;-82
2021/06/20 10:16:29;;;;;;;7.13;5.15;;;;;;;23.06;62.59;100420.81;5051502;28;20030;-81
2021/06/20 10:18:58;;;;;;;9.15;5.70;;;;;;;23.16;62.87;100421.75;5040193;28;20069;-82
2021/06/20 10:21:38;;;;;;;7.00;5.10;;;;;;;23.11;62.19;100427.16;5039212;28;20041;-83
2021/06/20 10:24:11;;;;;;;7.95;5.68;;;;;;;23.03;62.63;100413.94;5045977;28;20053;-82
2021/06/20 10:26:43;;;;;;;6.95;5.20;;;;;;;23.06;63.01;100424.38;5037245;28;20050;-82
2021/06/20 10:29:17;;;;;;;6.32;4.85;;;;;;;23.09;62.30;100415.66;5035396;28;20045;-83
2021/06/20 10:31:43;;;;;;;5.93;4.80;;;;;;;23.24;61.87;100423.19;5056818;28;20055;-82
2021/06/20 10:34:22;;;;;;;6.88;4.88;;;;;;;23.29;60.58;100422.44;5040594;28;20037;-83
2021/06/20 10:36:51;;;;;;;6.20;5.10;;;;;;;23.44;61.25;100433.53;5058216;28;20056;-83
2021/06/20 10:39:17;;;;;;;;;;;;;;;23.47;59.26;100430.28;5043792;28;20501;-84
2021/06/20 10:41:43;;;;;;;6.65;5.00;;;;;;;23.31;60.72;100421.09;5058846;28;19943;-83
2021/06/20 10:44:08;;;;;;;7.97;5.38;;;;;;;23.30;61.57;100422.16;5044962;28;20048;-83
2021/06/20 10:46:35;;;;;;;7.57;5.82;;;;;;;23.19;62.89;100428.63;5047659;28;20041;-82
2021/06/20 10:49:13;;;;;;;8.32;6.05;;;;;;;23.12;62.48;100415.13;5047186;28;20043;-82
2021/06/20 10:51:38;;;;;;;9.50;6.15;;;;;;;23.13;63.76;100414.06;5041974;28;20049;-83
2021/06/20 10:54:04;;;;;;;8.93;6.55;;;;;;;23.31;63.15;100406.59;5041867;28;20043;-83
2021/06/20 10:56:30;;;;;;;7.85;5.47;;;;;;;23.49;63.27;100399.91;5049789;28;20052;-82
2021/06/20 10:58:56;;;;;;;6.22;5.20;;;;;;;23.75;62.16;100412.78;5050230;28;20442;-83
2021/06/20 11:01:24;;;;;;;6.30;5.25;;;;;;;23.64;61.76;100422.78;5038758;28;20025;-83
2021/06/20 11:03:52;;;;;;;10.50;6.43;;;;;;;23.39;61.62;100426.13;5053535;28;20056;-83
2021/06/20 11:06:22;;;;;;;5.70;4.85;;;;;;;23.32;62.59;100439.16;5041999;28;20102;-83
2021/06/20 11:09:06;;;;;;;6.95;5.88;;;;;;;23.38;62.80;100429.91;5060392;28;20378;-82
2021/06/20 11:11:34;;;;;;;7.63;5.95;;;;;;;23.57;61.90;100424.91;5052696;28;20095;-84
2021/06/20 11:14:01;;;;;;;7.63;6.30;;;;;;;23.65;61.84;100435.41;5043404;28;20417;-83